aviador You're here:

KBLV Decoded Metar

BELLEVILLE in IL, USA
Report Time2018-02-19 02:56:00
UTC Time2018-02-19 03:38:03
Flight Rules mvfr MVFR
Wind190° at 12 kt
W.Decomp.*RWY 14: 8.0 kt HW 8.9 kt RCW
W.Rank190° ranks 7
Current wind is above 190° avg. (7.7)
Visibility9999 m
Phenomena:N/A
Clouds:Broken 024 Hf
Overcast 095 Hf
Expected CloudBase > 3,200 ft AGL from Temp-Dew spread
Ceiling2,400 ft
Temp10°C (ISA -4)
Dew Point02°C (58% RH)
AAT4.0°C
QNH1014 hPa
Density Alt30 ft
Elevation453 ft
Report Wrong Elevation
Raw Report
KBLV 190256Z AUTO 19012KT 10SM BKN024 OVC095 10/02 A2994 RMK AO2
SLP144 T00970018 57016 $=

Extra information for KBLV:More info

Metar Taf Metar & Taf Last 4 Metars F.Rules Stats Wind Profile Meteogram Temp Stats Airport Information Weather charts Add Link Nearby VenuesMetar ALERT Operation Metar Decoded Social comments

AIRNAV info for KBLV